ADDS METAR Data INFO
IDs: Format: Raw Decoded Include TAF

Data at: 1859 UTC 22 Sep 2017

METAR for:KPEZ (Pleasanton Muni, TX, US)
Text:KPEZ 221855Z AUTO 16005G09KT 10SM SCT048 33/20 A2990 RMK AO2 T03320196
Temperature: 33.2°C ( 92°F)
Dewpoint: 19.6°C ( 67°F) [RH = 45%]
Pressure (altimeter):29.90 inches Hg (1012.6 mb)
Winds:from the SSE (160 degrees) at 6 MPH (5 knots; 2.6 m/s) gusting to 10 MPH (9 knots; 4.6 m/s)
Visibility:10 or more sm (16+ km)
Ceiling:at least 12,000 feet AGL
Clouds: scattered clouds at 4800 feet AGL
QC Flag:automated observation with no human augmentation